sensor_id;sensor_type;location;lat;lon;timestamp;temperature;humidity
20057;DHT22;10189;49.546;7.906;2023-05-07T00:00:46;13.70;89.00
20057;DHT22;10189;49.546;7.906;2023-05-07T00:03:12;13.70;88.90
20057;DHT22;10189;49.546;7.906;2023-05-07T00:05:39;13.70;88.80
20057;DHT22;10189;49.546;7.906;2023-05-07T00:08:05;13.70;88.60
20057;DHT22;10189;49.546;7.906;2023-05-07T00:10:31;13.70;88.50
20057;DHT22;10189;49.546;7.906;2023-05-07T00:12:57;13.60;88.40
20057;DHT22;10189;49.546;7.906;2023-05-07T00:15:22;13.60;88.80
20057;DHT22;10189;49.546;7.906;2023-05-07T00:17:48;13.60;88.40
20057;DHT22;10189;49.546;7.906;2023-05-07T00:20:14;13.60;87.80
20057;DHT22;10189;49.546;7.906;2023-05-07T00:22:40;13.60;87.70
20057;DHT22;10189;49.546;7.906;2023-05-07T00:25:07;13.60;87.50
20057;DHT22;10189;49.546;7.906;2023-05-07T00:27:33;13.60;87.70
20057;DHT22;10189;49.546;7.906;2023-05-07T00:29:59;13.60;88.00
20057;DHT22;10189;49.546;7.906;2023-05-07T00:32:24;13.60;88.10
20057;DHT22;10189;49.546;7.906;2023-05-07T00:34:50;13.60;88.20
20057;DHT22;10189;49.546;7.906;2023-05-07T00:37:16;13.60;88.10
20057;DHT22;10189;49.546;7.906;2023-05-07T00:39:42;13.60;88.50
20057;DHT22;10189;49.546;7.906;2023-05-07T00:42:08;13.50;88.60
20057;DHT22;10189;49.546;7.906;2023-05-07T00:44:34;13.50;88.80
20057;DHT22;10189;49.546;7.906;2023-05-07T00:47:02;13.40;89.10
20057;DHT22;10189;49.546;7.906;2023-05-07T00:49:39;13.40;89.30
20057;DHT22;10189;49.546;7.906;2023-05-07T00:52:13;13.40;89.30
20057;DHT22;10189;49.546;7.906;2023-05-07T00:54:41;13.30;89.80
20057;DHT22;10189;49.546;7.906;2023-05-07T00:57:09;13.30;89.60
20057;DHT22;10189;49.546;7.906;2023-05-07T00:59:37;13.20;89.80
20057;DHT22;10189;49.546;7.906;2023-05-07T01:02:03;13.10;90.40
20057;DHT22;10189;49.546;7.906;2023-05-07T01:04:29;13.00;91.30
20057;DHT22;10189;49.546;7.906;2023-05-07T01:06:56;12.90;91.50
20057;DHT22;10189;49.546;7.906;2023-05-07T01:09:24;12.90;91.50
20057;DHT22;10189;49.546;7.906;2023-05-07T01:11:51;12.70;92.40
20057;DHT22;10189;49.546;7.906;2023-05-07T01:14:19;12.60;93.00
20057;DHT22;10189;49.546;7.906;2023-05-07T01:16:46;12.60;92.90
20057;DHT22;10189;49.546;7.906;2023-05-07T01:19:14;12.60;93.10
20057;DHT22;10189;49.546;7.906;2023-05-07T01:21:46;12.50;93.30
20057;DHT22;10189;49.546;7.906;2023-05-07T01:24:15;12.60;93.30
20057;DHT22;10189;49.546;7.906;2023-05-07T01:26:43;12.50;93.40
20057;DHT22;10189;49.546;7.906;2023-05-07T01:29:10;12.40;93.80
20057;DHT22;10189;49.546;7.906;2023-05-07T01:31:37;12.30;94.00
20057;DHT22;10189;49.546;7.906;2023-05-07T01:34:05;12.20;94.50
20057;DHT22;10189;49.546;7.906;2023-05-07T01:36:34;12.10;95.20
20057;DHT22;10189;49.546;7.906;2023-05-07T01:39:04;12.00;95.40
20057;DHT22;10189;49.546;7.906;2023-05-07T01:41:31;11.90;95.60
20057;DHT22;10189;49.546;7.906;2023-05-07T01:43:58;11.80;96.60
20057;DHT22;10189;49.546;7.906;2023-05-07T01:46:26;11.70;97.30
20057;DHT22;10189;49.546;7.906;2023-05-07T01:48:53;11.90;97.50
20057;DHT22;10189;49.546;7.906;2023-05-07T01:51:19;12.00;96.60
20057;DHT22;10189;49.546;7.906;2023-05-07T01:53:46;12.10;95.60
20057;DHT22;10189;49.546;7.906;2023-05-07T01:56:18;12.30;95.20
20057;DHT22;10189;49.546;7.906;2023-05-07T01:58:46;12.40;94.30
20057;DHT22;10189;49.546;7.906;2023-05-07T02:01:13;12.30;94.60
20057;DHT22;10189;49.546;7.906;2023-05-07T02:03:40;12.40;94.20
20057;DHT22;10189;49.546;7.906;2023-05-07T02:06:13;12.50;93.80
20057;DHT22;10189;49.546;7.906;2023-05-07T02:08:39;12.50;93.70
20057;DHT22;10189;49.546;7.906;2023-05-07T02:11:05;12.50;93.60
20057;DHT22;10189;49.546;7.906;2023-05-07T02:13:33;12.50;93.50
20057;DHT22;10189;49.546;7.906;2023-05-07T02:16:00;12.50;93.70
20057;DHT22;10189;49.546;7.906;2023-05-07T02:18:27;12.30;94.40
20057;DHT22;10189;49.546;7.906;2023-05-07T02:20:53;12.20;94.60
20057;DHT22;10189;49.546;7.906;2023-05-07T02:23:19;12.10;95.30
20057;DHT22;10189;49.546;7.906;2023-05-07T02:25:45;11.90;95.90
20057;DHT22;10189;49.546;7.906;2023-05-07T02:28:11;11.70;96.50
20057;DHT22;10189;49.546;7.906;2023-05-07T02:30:59;11.50;97.00
20057;DHT22;10189;49.546;7.906;2023-05-07T02:33:27;11.30;97.80
20057;DHT22;10189;49.546;7.906;2023-05-07T02:35:53;11.10;98.70
20057;DHT22;10189;49.546;7.906;2023-05-07T02:38:19;11.00;99.40
20057;DHT22;10189;49.546;7.906;2023-05-07T02:40:45;10.80;99.90
20057;DHT22;10189;49.546;7.906;2023-05-07T02:43:11;10.70;99.90
20057;DHT22;10189;49.546;7.906;2023-05-07T02:45:38;10.60;99.90
20057;DHT22;10189;49.546;7.906;2023-05-07T02:48:05;10.40;99.90
20057;DHT22;10189;49.546;7.906;2023-05-07T02:50:32;10.30;99.90
20057;DHT22;10189;49.546;7.906;2023-05-07T02:52:58;10.20;99.90
20057;DHT22;10189;49.546;7.906;2023-05-07T02:55:24;10.10;99.90
20057;DHT22;10189;49.546;7.906;2023-05-07T02:57:50;10.10;99.90
20057;DHT22;10189;49.546;7.906;2023-05-07T03:00:18;10.00;99.90
20057;DHT22;10189;49.546;7.906;2023-05-07T03:02:53;9.90;99.90
20057;DHT22;10189;49.546;7.906;2023-05-07T03:05:19;9.90;99.90
20057;DHT22;10189;49.546;7.906;2023-05-07T03:07:45;9.90;99.90
20057;DHT22;10189;49.546;7.906;2023-05-07T03:10:12;10.00;99.90
20057;DHT22;10189;49.546;7.906;2023-05-07T03:12:38;10.30;99.90
20057;DHT22;10189;49.546;7.906;2023-05-07T03:15:05;10.50;99.90
20057;DHT22;10189;49.546;7.906;2023-05-07T03:17:31;10.70;99.90
20057;DHT22;10189;49.546;7.906;2023-05-07T03:19:57;10.90;99.90
20057;DHT22;10189;49.546;7.906;2023-05-07T03:22:24;10.90;99.90
20057;DHT22;10189;49.546;7.906;2023-05-07T03:24:50;11.00;99.90
20057;DHT22;10189;49.546;7.906;2023-05-07T03:27:15;10.90;99.90
20057;DHT22;10189;49.546;7.906;2023-05-07T03:29:42;10.90;99.90
20057;DHT22;10189;49.546;7.906;2023-05-07T03:32:08;10.80;99.90
20057;DHT22;10189;49.546;7.906;2023-05-07T03:34:34;10.70;99.90
20057;DHT22;10189;49.546;7.906;2023-05-07T03:37:00;10.70;99.90
20057;DHT22;10189;49.546;7.906;2023-05-07T03:39:26;10.50;99.90
20057;DHT22;10189;49.546;7.906;2023-05-07T03:41:52;10.50;99.90
20057;DHT22;10189;49.546;7.906;2023-05-07T03:44:18;10.50;99.90
20057;DHT22;10189;49.546;7.906;2023-05-07T03:46:45;10.50;99.90
20057;DHT22;10189;49.546;7.906;2023-05-07T03:49:11;10.50;99.90
20057;DHT22;10189;49.546;7.906;2023-05-07T03:51:37;10.40;99.90
20057;DHT22;10189;49.546;7.906;2023-05-07T03:54:05;10.40;99.90
20057;DHT22;10189;49.546;7.906;2023-05-07T03:56:32;10.30;99.90
20057;DHT22;10189;49.546;7.906;2023-05-07T03:59:00;10.20;99.90
20057;DHT22;10189;49.546;7.906;2023-05-07T04:01:27;10.00;99.90
20057;DHT22;10189;49.546;7.906;2023-05-07T04:03:53;9.90;99.90
20057;DHT22;10189;49.546;7.906;2023-05-07T04:06:19;9.80;99.90
20057;DHT22;10189;49.546;7.906;2023-05-07T04:08:47;9.70;99.90
20057;DHT22;10189;49.546;7.906;2023-05-07T04:11:13;9.60;99.90
20057;DHT22;10189;49.546;7.906;2023-05-07T04:13:39;9.60;99.90
20057;DHT22;10189;49.546;7.906;2023-05-07T04:16:07;9.50;99.90
20057;DHT22;10189;49.546;7.906;2023-05-07T04:18:35;9.50;99.90
20057;DHT22;10189;49.546;7.906;2023-05-07T04:21:01;9.50;99.90
20057;DHT22;10189;49.546;7.906;2023-05-07T04:23:27;9.50;99.90
20057;DHT22;10189;49.546;7.906;2023-05-07T04:25:56;9.50;99.90
20057;DHT22;10189;49.546;7.906;2023-05-07T04:28:36;9.40;99.90
20057;DHT22;10189;49.546;7.906;2023-05-07T04:31:03;9.40;99.90
20057;DHT22;10189;49.546;7.906;2023-05-07T04:33:31;9.40;99.90
20057;DHT22;10189;49.546;7.906;2023-05-07T04:35:58;9.40;99.90
20057;DHT22;10189;49.546;7.906;2023-05-07T04:38:29;9.50;99.90
20057;DHT22;10189;49.546;7.906;2023-05-07T04:41:03;9.50;99.90
20057;DHT22;10189;49.546;7.906;2023-05-07T04:43:32;9.60;99.90
20057;DHT22;10189;49.546;7.906;2023-05-07T04:45:59;9.60;99.90
20057;DHT22;10189;49.546;7.906;2023-05-07T04:48:26;9.60;99.90
20057;DHT22;10189;49.546;7.906;2023-05-07T04:50:53;9.70;99.90
20057;DHT22;10189;49.546;7.906;2023-05-07T04:53:20;9.80;99.90
20057;DHT22;10189;49.546;7.906;2023-05-07T04:55:47;9.90;99.90
20057;DHT22;10189;49.546;7.906;2023-05-07T04:58:14;10.00;99.90
20057;DHT22;10189;49.546;7.906;2023-05-07T05:00:41;10.10;99.90
20057;DHT22;10189;49.546;7.906;2023-05-07T05:03:08;10.30;99.90
20057;DHT22;10189;49.546;7.906;2023-05-07T05:05:35;10.40;99.90
20057;DHT22;10189;49.546;7.906;2023-05-07T05:08:02;10.70;99.90
20057;DHT22;10189;49.546;7.906;2023-05-07T05:10:28;10.90;99.90
20057;DHT22;10189;49.546;7.906;2023-05-07T05:12:55;11.10;99.90
20057;DHT22;10189;49.546;7.906;2023-05-07T05:15:22;11.30;99.90
20057;DHT22;10189;49.546;7.906;2023-05-07T05:17:48;11.50;99.90
20057;DHT22;10189;49.546;7.906;2023-05-07T05:20:14;11.70;99.90
20057;DHT22;10189;49.546;7.906;2023-05-07T05:22:44;11.90;99.80
20057;DHT22;10189;49.546;7.906;2023-05-07T05:25:12;12.00;98.60
20057;DHT22;10189;49.546;7.906;2023-05-07T05:27:38;12.20;99.00
20057;DHT22;10189;49.546;7.906;2023-05-07T05:30:05;12.20;98.70
20057;DHT22;10189;49.546;7.906;2023-05-07T05:32:34;12.20;99.00
20057;DHT22;10189;49.546;7.906;2023-05-07T05:34:59;12.20;98.00
20057;DHT22;10189;49.546;7.906;2023-05-07T05:37:26;12.20;98.20
20057;DHT22;10189;49.546;7.906;2023-05-07T05:39:53;12.10;97.80
20057;DHT22;10189;49.546;7.906;2023-05-07T05:42:20;12.10;98.60
20057;DHT22;10189;49.546;7.906;2023-05-07T05:44:46;12.20;98.60
20057;DHT22;10189;49.546;7.906;2023-05-07T05:47:13;12.30;98.40
20057;DHT22;10189;49.546;7.906;2023-05-07T05:49:39;12.50;97.80
20057;DHT22;10189;49.546;7.906;2023-05-07T05:52:07;12.50;97.80
20057;DHT22;10189;49.546;7.906;2023-05-07T05:54:33;12.70;98.10
20057;DHT22;10189;49.546;7.906;2023-05-07T05:56:58;12.90;97.00
20057;DHT22;10189;49.546;7.906;2023-05-07T05:59:25;13.00;95.30
20057;DHT22;10189;49.546;7.906;2023-05-07T06:01:52;13.20;94.00
20057;DHT22;10189;49.546;7.906;2023-05-07T06:04:18;13.30;93.30
20057;DHT22;10189;49.546;7.906;2023-05-07T06:06:44;13.30;92.90
20057;DHT22;10189;49.546;7.906;2023-05-07T06:09:10;13.40;92.80
20057;DHT22;10189;49.546;7.906;2023-05-07T06:11:41;13.50;92.50
20057;DHT22;10189;49.546;7.906;2023-05-07T06:14:07;13.50;92.00
20057;DHT22;10189;49.546;7.906;2023-05-07T06:16:33;13.60;92.30
20057;DHT22;10189;49.546;7.906;2023-05-07T06:19:00;13.70;92.10
20057;DHT22;10189;49.546;7.906;2023-05-07T06:21:25;13.70;90.50
20057;DHT22;10189;49.546;7.906;2023-05-07T06:23:51;13.80;91.00
20057;DHT22;10189;49.546;7.906;2023-05-07T06:26:18;13.90;90.20
20057;DHT22;10189;49.546;7.906;2023-05-07T06:28:46;13.90;91.10
20057;DHT22;10189;49.546;7.906;2023-05-07T06:31:18;14.00;90.80
20057;DHT22;10189;49.546;7.906;2023-05-07T06:33:59;14.20;90.60
20057;DHT22;10189;49.546;7.906;2023-05-07T06:36:31;14.30;90.30
20057;DHT22;10189;49.546;7.906;2023-05-07T06:38:59;14.50;88.40
20057;DHT22;10189;49.546;7.906;2023-05-07T06:41:25;14.50;88.10
20057;DHT22;10189;49.546;7.906;2023-05-07T06:43:51;14.60;88.80
20057;DHT22;10189;49.546;7.906;2023-05-07T06:46:29;14.70;87.30
20057;DHT22;10189;49.546;7.906;2023-05-07T06:48:55;14.60;87.60
20057;DHT22;10189;49.546;7.906;2023-05-07T06:51:22;14.70;88.70
20057;DHT22;10189;49.546;7.906;2023-05-07T06:53:48;14.60;88.40
20057;DHT22;10189;49.546;7.906;2023-05-07T06:56:14;14.40;89.60
20057;DHT22;10189;49.546;7.906;2023-05-07T06:58:41;14.30;91.00
20057;DHT22;10189;49.546;7.906;2023-05-07T07:01:08;14.30;90.90
20057;DHT22;10189;49.546;7.906;2023-05-07T07:03:35;14.40;91.30
20057;DHT22;10189;49.546;7.906;2023-05-07T07:06:01;14.50;90.70
20057;DHT22;10189;49.546;7.906;2023-05-07T07:08:28;14.60;90.80
20057;DHT22;10189;49.546;7.906;2023-05-07T07:10:55;14.60;91.50
20057;DHT22;10189;49.546;7.906;2023-05-07T07:13:21;14.70;90.70
20057;DHT22;10189;49.546;7.906;2023-05-07T07:15:48;14.80;91.20
20057;DHT22;10189;49.546;7.906;2023-05-07T07:18:14;14.90;89.30
20057;DHT22;10189;49.546;7.906;2023-05-07T07:20:41;14.80;89.50
20057;DHT22;10189;49.546;7.906;2023-05-07T07:23:09;14.90;88.40
20057;DHT22;10189;49.546;7.906;2023-05-07T07:25:35;14.90;88.20
20057;DHT22;10189;49.546;7.906;2023-05-07T07:28:01;14.90;88.20
20057;DHT22;10189;49.546;7.906;2023-05-07T07:30:28;14.80;89.00
20057;DHT22;10189;49.546;7.906;2023-05-07T07:32:54;14.80;89.20
20057;DHT22;10189;49.546;7.906;2023-05-07T07:35:25;14.80;89.60
20057;DHT22;10189;49.546;7.906;2023-05-07T07:37:52;14.90;89.80
20057;DHT22;10189;49.546;7.906;2023-05-07T07:40:18;15.00;90.10
20057;DHT22;10189;49.546;7.906;2023-05-07T07:42:45;15.20;89.70
20057;DHT22;10189;49.546;7.906;2023-05-07T07:45:11;15.40;89.30
20057;DHT22;10189;49.546;7.906;2023-05-07T07:47:42;15.50;87.70
20057;DHT22;10189;49.546;7.906;2023-05-07T07:50:09;15.70;87.50
20057;DHT22;10189;49.546;7.906;2023-05-07T07:52:35;15.90;86.30
20057;DHT22;10189;49.546;7.906;2023-05-07T07:55:01;16.00;86.30
20057;DHT22;10189;49.546;7.906;2023-05-07T07:57:28;16.10;85.60
20057;DHT22;10189;49.546;7.906;2023-05-07T07:59:54;16.20;83.50
20057;DHT22;10189;49.546;7.906;2023-05-07T08:02:20;16.20;84.40
20057;DHT22;10189;49.546;7.906;2023-05-07T08:04:48;16.40;82.80
20057;DHT22;10189;49.546;7.906;2023-05-07T08:07:14;16.30;82.00
20057;DHT22;10189;49.546;7.906;2023-05-07T08:09:43;16.20;81.90
20057;DHT22;10189;49.546;7.906;2023-05-07T08:12:10;16.20;81.30
20057;DHT22;10189;49.546;7.906;2023-05-07T08:14:37;16.40;80.80
20057;DHT22;10189;49.546;7.906;2023-05-07T08:17:05;16.50;79.90
20057;DHT22;10189;49.546;7.906;2023-05-07T08:19:31;16.60;79.00
20057;DHT22;10189;49.546;7.906;2023-05-07T08:21:57;16.70;79.50
20057;DHT22;10189;49.546;7.906;2023-05-07T08:24:25;16.70;78.60
20057;DHT22;10189;49.546;7.906;2023-05-07T08:26:51;16.80;78.00
20057;DHT22;10189;49.546;7.906;2023-05-07T08:29:17;16.80;78.90
20057;DHT22;10189;49.546;7.906;2023-05-07T08:31:43;17.00;78.90
20057;DHT22;10189;49.546;7.906;2023-05-07T08:34:09;17.10;79.30
20057;DHT22;10189;49.546;7.906;2023-05-07T08:36:37;17.10;78.20
20057;DHT22;10189;49.546;7.906;2023-05-07T08:39:03;17.30;77.70
20057;DHT22;10189;49.546;7.906;2023-05-07T08:41:30;17.30;77.60
20057;DHT22;10189;49.546;7.906;2023-05-07T08:43:58;17.00;77.70
20057;DHT22;10189;49.546;7.906;2023-05-07T08:46:31;16.70;79.70
20057;DHT22;10189;49.546;7.906;2023-05-07T08:48:58;17.00;78.90
20057;DHT22;10189;49.546;7.906;2023-05-07T08:51:24;17.40;79.20
20057;DHT22;10189;49.546;7.906;2023-05-07T08:53:51;17.70;76.30
20057;DHT22;10189;49.546;7.906;2023-05-07T08:56:23;17.80;74.90
20057;DHT22;10189;49.546;7.906;2023-05-07T08:58:51;17.90;76.60
20057;DHT22;10189;49.546;7.906;2023-05-07T09:01:17;17.90;74.10
20057;DHT22;10189;49.546;7.906;2023-05-07T09:03:47;17.70;75.50
20057;DHT22;10189;49.546;7.906;2023-05-07T09:06:15;17.90;76.00
20057;DHT22;10189;49.546;7.906;2023-05-07T09:08:49;18.10;74.90
20057;DHT22;10189;49.546;7.906;2023-05-07T09:11:21;18.20;74.30
20057;DHT22;10189;49.546;7.906;2023-05-07T09:13:58;18.60;75.00
20057;DHT22;10189;49.546;7.906;2023-05-07T09:16:29;18.70;73.60
20057;DHT22;10189;49.546;7.906;2023-05-07T09:18:59;18.90;72.70
20057;DHT22;10189;49.546;7.906;2023-05-07T09:21:26;18.70;72.10
20057;DHT22;10189;49.546;7.906;2023-05-07T09:23:55;18.70;72.30
20057;DHT22;10189;49.546;7.906;2023-05-07T09:26:27;18.60;73.40
20057;DHT22;10189;49.546;7.906;2023-05-07T09:28:54;18.50;74.00
20057;DHT22;10189;49.546;7.906;2023-05-07T09:31:20;18.50;74.70
20057;DHT22;10189;49.546;7.906;2023-05-07T09:33:48;18.80;74.90
20057;DHT22;10189;49.546;7.906;2023-05-07T09:36:15;19.10;72.60
20057;DHT22;10189;49.546;7.906;2023-05-07T09:38:41;19.40;68.90
20057;DHT22;10189;49.546;7.906;2023-05-07T09:41:10;19.30;69.20
20057;DHT22;10189;49.546;7.906;2023-05-07T09:43:44;19.60;68.50
20057;DHT22;10189;49.546;7.906;2023-05-07T09:46:14;19.50;68.60
20057;DHT22;10189;49.546;7.906;2023-05-07T09:48:46;19.40;69.60
20057;DHT22;10189;49.546;7.906;2023-05-07T09:51:34;19.40;68.00
20057;DHT22;10189;49.546;7.906;2023-05-07T09:54:15;19.40;68.10
20057;DHT22;10189;49.546;7.906;2023-05-07T09:56:48;19.50;69.30
20057;DHT22;10189;49.546;7.906;2023-05-07T09:59:16;19.80;67.80
20057;DHT22;10189;49.546;7.906;2023-05-07T10:01:45;20.20;68.60
20057;DHT22;10189;49.546;7.906;2023-05-07T10:04:14;20.70;66.80
20057;DHT22;10189;49.546;7.906;2023-05-07T10:06:42;21.10;63.50
20057;DHT22;10189;49.546;7.906;2023-05-07T10:09:11;20.80;65.50
20057;DHT22;10189;49.546;7.906;2023-05-07T10:11:39;20.80;64.50
20057;DHT22;10189;49.546;7.906;2023-05-07T10:14:09;20.70;64.70
20057;DHT22;10189;49.546;7.906;2023-05-07T10:16:37;20.60;67.20
20057;DHT22;10189;49.546;7.906;2023-05-07T10:19:07;20.40;64.80
20057;DHT22;10189;49.546;7.906;2023-05-07T10:21:44;20.00;66.80
20057;DHT22;10189;49.546;7.906;2023-05-07T10:24:31;20.00;67.60
20057;DHT22;10189;49.546;7.906;2023-05-07T10:27:09;20.40;67.00
20057;DHT22;10189;49.546;7.906;2023-05-07T10:29:42;20.70;65.50
20057;DHT22;10189;49.546;7.906;2023-05-07T10:34:55;20.60;65.30
20057;DHT22;10189;49.546;7.906;2023-05-07T10:37:23;20.70;66.00
20057;DHT22;10189;49.546;7.906;2023-05-07T10:39:50;20.70;65.40
20057;DHT22;10189;49.546;7.906;2023-05-07T10:42:19;20.70;65.60
20057;DHT22;10189;49.546;7.906;2023-05-07T10:44:49;21.00;66.70
20057;DHT22;10189;49.546;7.906;2023-05-07T10:47:22;21.10;62.70
20057;DHT22;10189;49.546;7.906;2023-05-07T10:52:23;21.10;65.00
20057;DHT22;10189;49.546;7.906;2023-05-07T11:00:56;20.70;64.80
20057;DHT22;10189;49.546;7.906;2023-05-07T11:03:29;20.90;64.80
20057;DHT22;10189;49.546;7.906;2023-05-07T11:08:58;21.10;63.80
20057;DHT22;10189;49.546;7.906;2023-05-07T11:11:49;21.10;63.90
20057;DHT22;10189;49.546;7.906;2023-05-07T11:14:45;21.40;64.70
20057;DHT22;10189;49.546;7.906;2023-05-07T11:17:22;21.60;63.20
20057;DHT22;10189;49.546;7.906;2023-05-07T11:19:56;21.50;63.00
20057;DHT22;10189;49.546;7.906;2023-05-07T11:22:40;21.40;63.10
20057;DHT22;10189;49.546;7.906;2023-05-07T11:25:18;21.50;66.20
20057;DHT22;10189;49.546;7.906;2023-05-07T11:27:46;21.60;63.00
20057;DHT22;10189;49.546;7.906;2023-05-07T11:30:22;21.80;64.30
20057;DHT22;10189;49.546;7.906;2023-05-07T11:32:49;22.00;63.50
20057;DHT22;10189;49.546;7.906;2023-05-07T11:35:16;22.10;61.80
20057;DHT22;10189;49.546;7.906;2023-05-07T11:37:45;22.00;60.60
20057;DHT22;10189;49.546;7.906;2023-05-07T11:40:13;21.50;61.20
20057;DHT22;10189;49.546;7.906;2023-05-07T11:42:39;21.30;63.90
20057;DHT22;10189;49.546;7.906;2023-05-07T11:45:08;21.00;63.40
20057;DHT22;10189;49.546;7.906;2023-05-07T11:47:35;20.60;65.20
20057;DHT22;10189;49.546;7.906;2023-05-07T11:50:09;20.60;64.70
20057;DHT22;10189;49.546;7.906;2023-05-07T11:52:36;20.50;65.30
20057;DHT22;10189;49.546;7.906;2023-05-07T11:55:06;20.40;66.00
20057;DHT22;10189;49.546;7.906;2023-05-07T11:57:33;20.60;64.50
20057;DHT22;10189;49.546;7.906;2023-05-07T12:00:00;20.80;64.40
20057;DHT22;10189;49.546;7.906;2023-05-07T12:02:38;20.80;64.50
20057;DHT22;10189;49.546;7.906;2023-05-07T12:05:05;20.80;63.30
20057;DHT22;10189;49.546;7.906;2023-05-07T12:09:58;20.70;64.30
20057;DHT22;10189;49.546;7.906;2023-05-07T12:12:24;20.70;64.20
20057;DHT22;10189;49.546;7.906;2023-05-07T12:14:52;20.50;64.40
20057;DHT22;10189;49.546;7.906;2023-05-07T12:17:18;20.40;64.80
20057;DHT22;10189;49.546;7.906;2023-05-07T12:19:45;20.40;65.50
20057;DHT22;10189;49.546;7.906;2023-05-07T12:22:12;20.40;65.20
20057;DHT22;10189;49.546;7.906;2023-05-07T12:24:49;20.50;65.70
20057;DHT22;10189;49.546;7.906;2023-05-07T12:27:22;20.50;66.30
20057;DHT22;10189;49.546;7.906;2023-05-07T12:29:49;20.70;66.00
20057;DHT22;10189;49.546;7.906;2023-05-07T12:32:18;20.80;66.80
20057;DHT22;10189;49.546;7.906;2023-05-07T12:34:49;20.60;66.80
20057;DHT22;10189;49.546;7.906;2023-05-07T12:37:23;20.50;68.10
20057;DHT22;10189;49.546;7.906;2023-05-07T12:40:09;20.60;69.00
20057;DHT22;10189;49.546;7.906;2023-05-07T12:42:37;20.70;67.00
20057;DHT22;10189;49.546;7.906;2023-05-07T12:45:12;20.80;67.60
20057;DHT22;10189;49.546;7.906;2023-05-07T12:47:47;20.80;67.00
20057;DHT22;10189;49.546;7.906;2023-05-07T12:50:16;20.70;68.20
20057;DHT22;10189;49.546;7.906;2023-05-07T12:52:44;20.60;68.40
20057;DHT22;10189;49.546;7.906;2023-05-07T12:55:14;20.50;67.00
20057;DHT22;10189;49.546;7.906;2023-05-07T12:57:43;20.30;69.10
20057;DHT22;10189;49.546;7.906;2023-05-07T13:00:41;20.40;70.10
20057;DHT22;10189;49.546;7.906;2023-05-07T13:03:08;20.30;69.80
20057;DHT22;10189;49.546;7.906;2023-05-07T13:05:35;20.30;69.20
20057;DHT22;10189;49.546;7.906;2023-05-07T13:08:01;20.20;70.80
20057;DHT22;10189;49.546;7.906;2023-05-07T13:10:27;20.20;70.00
20057;DHT22;10189;49.546;7.906;2023-05-07T13:12:54;20.30;70.40
20057;DHT22;10189;49.546;7.906;2023-05-07T13:15:21;20.30;71.80
20057;DHT22;10189;49.546;7.906;2023-05-07T13:17:48;20.30;72.10
20057;DHT22;10189;49.546;7.906;2023-05-07T13:20:14;20.20;74.00
20057;DHT22;10189;49.546;7.906;2023-05-07T13:22:41;20.30;73.20
20057;DHT22;10189;49.546;7.906;2023-05-07T13:25:07;20.30;75.40
20057;DHT22;10189;49.546;7.906;2023-05-07T13:27:33;20.40;76.00
20057;DHT22;10189;49.546;7.906;2023-05-07T13:30:03;20.50;74.30
20057;DHT22;10189;49.546;7.906;2023-05-07T13:32:30;20.60;75.30
20057;DHT22;10189;49.546;7.906;2023-05-07T13:34:58;20.60;74.80
20057;DHT22;10189;49.546;7.906;2023-05-07T13:37:24;20.60;75.20
20057;DHT22;10189;49.546;7.906;2023-05-07T13:39:50;20.50;76.40
20057;DHT22;10189;49.546;7.906;2023-05-07T13:42:16;20.50;79.40
20057;DHT22;10189;49.546;7.906;2023-05-07T13:44:42;20.40;80.90
20057;DHT22;10189;49.546;7.906;2023-05-07T13:47:09;20.40;82.30
20057;DHT22;10189;49.546;7.906;2023-05-07T13:49:35;20.20;83.20
20057;DHT22;10189;49.546;7.906;2023-05-07T13:52:01;19.90;84.80
20057;DHT22;10189;49.546;7.906;2023-05-07T13:54:27;19.70;86.10
20057;DHT22;10189;49.546;7.906;2023-05-07T13:56:53;19.60;86.90
20057;DHT22;10189;49.546;7.906;2023-05-07T13:59:19;19.50;87.20
20057;DHT22;10189;49.546;7.906;2023-05-07T14:01:44;19.40;88.20
20057;DHT22;10189;49.546;7.906;2023-05-07T14:04:10;19.20;89.40
20057;DHT22;10189;49.546;7.906;2023-05-07T14:06:36;18.90;90.90
20057;DHT22;10189;49.546;7.906;2023-05-07T14:09:03;18.70;89.00
20057;DHT22;10189;49.546;7.906;2023-05-07T14:11:29;18.30;89.30
20057;DHT22;10189;49.546;7.906;2023-05-07T14:13:55;18.10;89.90
20057;DHT22;10189;49.546;7.906;2023-05-07T14:16:22;17.80;92.00
20057;DHT22;10189;49.546;7.906;2023-05-07T14:18:48;17.70;93.50
20057;DHT22;10189;49.546;7.906;2023-05-07T14:21:14;17.50;95.50
20057;DHT22;10189;49.546;7.906;2023-05-07T14:23:40;17.50;96.50
20057;DHT22;10189;49.546;7.906;2023-05-07T14:26:06;17.40;97.10
20057;DHT22;10189;49.546;7.906;2023-05-07T14:28:32;17.30;97.70
20057;DHT22;10189;49.546;7.906;2023-05-07T14:30:58;17.20;99.00
20057;DHT22;10189;49.546;7.906;2023-05-07T14:33:25;17.10;99.10
20057;DHT22;10189;49.546;7.906;2023-05-07T14:35:51;16.90;99.90
20057;DHT22;10189;49.546;7.906;2023-05-07T14:38:17;16.80;99.90
20057;DHT22;10189;49.546;7.906;2023-05-07T14:40:44;16.80;99.90
20057;DHT22;10189;49.546;7.906;2023-05-07T14:43:10;16.70;99.90
20057;DHT22;10189;49.546;7.906;2023-05-07T14:45:36;16.70;99.90
20057;DHT22;10189;49.546;7.906;2023-05-07T14:48:03;16.60;99.90
20057;DHT22;10189;49.546;7.906;2023-05-07T14:50:29;16.60;99.90
20057;DHT22;10189;49.546;7.906;2023-05-07T14:52:55;16.50;99.90
20057;DHT22;10189;49.546;7.906;2023-05-07T14:55:21;16.40;99.90
20057;DHT22;10189;49.546;7.906;2023-05-07T14:57:47;16.20;99.90
20057;DHT22;10189;49.546;7.906;2023-05-07T15:00:16;16.20;99.90
20057;DHT22;10189;49.546;7.906;2023-05-07T15:02:44;16.10;99.90
20057;DHT22;10189;49.546;7.906;2023-05-07T15:05:10;16.00;99.90
20057;DHT22;10189;49.546;7.906;2023-05-07T15:07:38;16.10;99.90
20057;DHT22;10189;49.546;7.906;2023-05-07T15:10:08;16.10;99.90
20057;DHT22;10189;49.546;7.906;2023-05-07T15:12:34;16.10;99.80
20057;DHT22;10189;49.546;7.906;2023-05-07T15:15:00;16.00;99.90
20057;DHT22;10189;49.546;7.906;2023-05-07T15:17:26;15.90;99.90
20057;DHT22;10189;49.546;7.906;2023-05-07T15:19:52;15.90;99.90
20057;DHT22;10189;49.546;7.906;2023-05-07T15:22:19;15.80;99.90
20057;DHT22;10189;49.546;7.906;2023-05-07T15:24:46;15.80;99.90
20057;DHT22;10189;49.546;7.906;2023-05-07T15:27:12;15.80;99.90
20057;DHT22;10189;49.546;7.906;2023-05-07T15:29:38;15.80;99.90
20057;DHT22;10189;49.546;7.906;2023-05-07T15:32:04;15.80;99.90
20057;DHT22;10189;49.546;7.906;2023-05-07T15:34:30;15.70;99.90
20057;DHT22;10189;49.546;7.906;2023-05-07T15:36:56;15.80;99.90
20057;DHT22;10189;49.546;7.906;2023-05-07T15:39:22;15.80;99.90
20057;DHT22;10189;49.546;7.906;2023-05-07T15:41:49;15.60;99.90
20057;DHT22;10189;49.546;7.906;2023-05-07T15:44:15;15.70;99.90
20057;DHT22;10189;49.546;7.906;2023-05-07T15:46:41;15.80;99.90
20057;DHT22;10189;49.546;7.906;2023-05-07T15:49:07;15.90;99.90
20057;DHT22;10189;49.546;7.906;2023-05-07T15:51:35;15.90;99.90
20057;DHT22;10189;49.546;7.906;2023-05-07T15:54:01;15.90;99.90